createdAt,value
2023-02-22T00:00:12.208Z,7.51
2023-02-22T00:01:12.196Z,7.47
2023-02-22T00:02:12.028Z,7.47
2023-02-22T00:03:12.330Z,7.49
2023-02-22T00:04:11.919Z,7.48
2023-02-22T00:05:12.218Z,7.54
2023-02-22T00:06:11.868Z,7.54
2023-02-22T00:07:11.923Z,7.49
2023-02-22T00:08:12.080Z,7.52
2023-02-22T00:09:11.596Z,7.44
2023-02-22T00:10:11.587Z,7.56
2023-02-22T00:11:12.062Z,7.52
2023-02-22T00:12:12.033Z,7.49
2023-02-22T00:13:11.784Z,7.4
2023-02-22T00:14:11.763Z,7.47
2023-02-22T00:15:11.740Z,7.51
2023-02-22T00:16:11.936Z,7.56
2023-02-22T00:17:11.714Z,7.47
2023-02-22T00:18:11.451Z,7.51
2023-02-22T00:19:11.928Z,7.52
2023-02-22T00:20:11.422Z,7.49
2023-02-22T00:21:11.978Z,7.45
2023-02-22T00:22:11.662Z,7.41
2023-02-22T00:23:11.903Z,7.52
2023-02-22T00:24:11.609Z,7.36
2023-02-22T00:25:11.599Z,7.47
2023-02-22T00:26:11.849Z,7.41
2023-02-22T00:27:11.828Z,7.39
2023-02-22T00:28:11.550Z,7.41
2023-02-22T00:29:11.788Z,7.44
2023-02-22T00:30:11.862Z,7.4
2023-02-22T00:31:11.499Z,7.41
2023-02-22T00:32:12.201Z,7.39
2023-02-22T00:33:11.727Z,7.39
2023-02-22T00:34:11.472Z,7.39
2023-02-22T00:35:11.454Z,7.31
2023-02-22T00:36:11.680Z,7.36
2023-02-22T00:37:11.740Z,7.37
2023-02-22T00:38:11.417Z,7.31
2023-02-22T00:39:11.392Z,7.34
2023-02-22T00:40:11.116Z,7.36
2023-02-22T00:41:11.625Z,7.41
2023-02-22T00:42:11.341Z,7.41
2023-02-22T00:43:11.583Z,7.36
2023-02-22T00:44:11.572Z,7.4
2023-02-22T00:45:11.558Z,7.44
2023-02-22T00:46:11.798Z,7.4
2023-02-22T00:47:11.530Z,7.33
2023-02-22T00:48:11.524Z,7.36
2023-02-22T00:49:11.554Z,7.34
2023-02-22T00:50:11.228Z,7.33
2023-02-22T00:51:11.461Z,7.36
2023-02-22T00:52:11.452Z,7.36
2023-02-22T00:53:11.517Z,7.39
2023-02-22T00:54:11.422Z,7.4
2023-02-22T00:55:11.420Z,7.33
2023-02-22T00:56:11.133Z,7.34
2023-02-22T00:57:11.143Z,7.37
2023-02-22T00:58:11.148Z,7.36
2023-02-22T00:59:11.362Z,7.29
2023-02-22T01:00:11.075Z,7.34
2023-02-22T01:01:11.255Z,7.37
2023-02-22T01:02:11.421Z,7.34
2023-02-22T01:03:11.337Z,7.36
2023-02-22T01:04:11.044Z,7.29
2023-02-22T01:05:11.192Z,7.36
2023-02-22T01:06:10.999Z,7.36
2023-02-22T01:07:11.227Z,7.31
2023-02-22T01:08:11.260Z,7.34
2023-02-22T01:09:11.405Z,7.36
2023-02-22T01:10:11.187Z,7.3
2023-02-22T01:11:10.923Z,7.23
2023-02-22T01:12:11.194Z,7.37
2023-02-22T01:13:11.650Z,7.31
2023-02-22T01:14:11.146Z,7.31
2023-02-22T01:15:10.875Z,7.27
2023-02-22T01:16:11.180Z,7.26
2023-02-22T01:17:10.840Z,7.36
2023-02-22T01:18:10.885Z,7.37
2023-02-22T01:19:11.085Z,7.39
2023-02-22T01:20:11.059Z,7.33
2023-02-22T01:21:10.548Z,7.39
2023-02-22T01:22:10.776Z,7.4
2023-02-22T01:23:11.000Z,7.37
2023-02-22T01:24:10.981Z,7.33
2023-02-22T01:25:11.048Z,7.31
2023-02-22T01:26:10.830Z,7.33
2023-02-22T01:27:10.692Z,7.34
2023-02-22T01:28:10.969Z,7.36
2023-02-22T01:29:10.911Z,7.27
2023-02-22T01:30:11.274Z,7.27
2023-02-22T01:31:11.093Z,7.23
2023-02-22T01:32:11.048Z,7.3
2023-02-22T01:34:10.859Z,7.26
2023-02-22T01:35:10.744Z,7.26
2023-02-22T01:36:10.566Z,7.31
2023-02-22T01:37:10.550Z,7.23
2023-02-22T01:38:10.566Z,7.19
2023-02-22T01:39:10.769Z,7.27
2023-02-22T01:40:10.764Z,7.23
2023-02-22T01:41:10.813Z,7.18
2023-02-22T01:42:10.820Z,7.23
2023-02-22T01:43:10.459Z,7.27
2023-02-22T01:44:10.690Z,7.23
2023-02-22T01:45:10.685Z,7.19
2023-02-22T01:46:10.870Z,7.22
2023-02-22T01:47:10.657Z,7.19
2023-02-22T01:48:10.375Z,7.23
2023-02-22T01:49:10.389Z,7.22
2023-02-22T01:50:10.627Z,7.22
2023-02-22T01:51:10.712Z,7.21
2023-02-22T01:52:10.337Z,7.22
2023-02-22T01:53:10.564Z,7.26
2023-02-22T01:54:10.078Z,7.16
2023-02-22T01:55:10.279Z,7.21
2023-02-22T01:56:10.275Z,7.23
2023-02-22T01:57:10.594Z,7.22
2023-02-22T01:58:09.994Z,7.22
2023-02-22T01:59:10.252Z,7.19
2023-02-22T02:00:10.465Z,7.21
2023-02-22T02:01:10.203Z,7.19
2023-02-22T02:02:10.426Z,7.13
2023-02-22T02:03:10.413Z,7.19
2023-02-22T02:04:10.414Z,7.19
2023-02-22T02:05:10.408Z,7.16
2023-02-22T02:06:10.139Z,7.09
2023-02-22T02:07:10.392Z,7.04
2023-02-22T02:08:10.091Z,7.03
2023-02-22T02:09:10.358Z,7.08
2023-02-22T02:10:10.066Z,7.05
2023-02-22T02:11:13.257Z,7.15
2023-02-22T02:12:09.782Z,7.16
2023-02-22T02:13:10.365Z,7.16
2023-02-22T02:14:09.754Z,7.03
2023-02-22T02:15:09.991Z,7.09
2023-02-22T02:16:09.725Z,7.08
2023-02-22T02:17:10.447Z,7.04
2023-02-22T02:18:10.205Z,7.12
2023-02-22T02:19:09.929Z,7.15
2023-02-22T02:20:10.175Z,7.12
2023-02-22T02:21:09.905Z,7.01
2023-02-22T02:22:10.153Z,7.16
2023-02-22T02:23:10.133Z,7.16
2023-02-22T02:24:10.111Z,7.21
2023-02-22T02:25:10.131Z,7.26
2023-02-22T02:26:10.091Z,7.21
2023-02-22T02:27:09.816Z,7.22
2023-02-22T02:28:10.065Z,7.23
2023-02-22T02:29:10.117Z,7.22
2023-02-22T02:30:10.285Z,7.19
2023-02-22T02:31:09.767Z,7.19
2023-02-22T02:32:09.882Z,7.26
2023-02-22T02:33:09.728Z,7.21
2023-02-22T02:34:09.472Z,7.23
2023-02-22T02:35:09.707Z,7.19
2023-02-22T02:36:09.443Z,7.19
2023-02-22T02:37:09.674Z,7.21
2023-02-22T02:38:09.673Z,7.23
2023-02-22T02:39:09.909Z,7.26
2023-02-22T02:40:10.098Z,7.23
2023-02-22T02:41:09.614Z,7.21
2023-02-22T02:42:09.857Z,7.26
2023-02-22T02:43:09.860Z,7.21
2023-02-22T02:44:09.830Z,7.22
2023-02-22T02:45:09.887Z,7.23
2023-02-22T02:46:09.808Z,7.29
2023-02-22T02:47:09.399Z,7.3
2023-02-22T02:48:09.620Z,7.23
2023-02-22T02:49:09.247Z,7.29
2023-02-22T02:50:09.765Z,7.34
2023-02-22T02:51:09.226Z,7.21
2023-02-22T02:52:09.711Z,7.31
2023-02-22T02:53:09.693Z,7.26
2023-02-22T02:54:09.444Z,7.23
2023-02-22T02:55:09.440Z,7.23
2023-02-22T02:56:09.655Z,7.21
2023-02-22T02:57:09.398Z,7.26
2023-02-22T02:58:09.638Z,7.21
2023-02-22T02:59:09.614Z,7.22
2023-02-22T03:00:09.351Z,7.23
2023-02-22T03:01:09.648Z,7.21
2023-02-22T03:02:09.591Z,7.18
2023-02-22T03:03:09.340Z,7.19
2023-02-22T03:04:09.537Z,7.18
2023-02-22T03:05:09.523Z,7.19
2023-02-22T03:06:09.964Z,7.18
2023-02-22T03:07:10.342Z,7.19
2023-02-22T03:08:09.935Z,7.27
2023-02-22T03:09:10.204Z,7.27
2023-02-22T03:10:09.990Z,7.29
2023-02-22T03:11:10.139Z,7.19
2023-02-22T03:12:10.156Z,7.23
2023-02-22T03:13:10.126Z,7.23
2023-02-22T03:14:09.861Z,7.27
2023-02-22T03:15:09.832Z,7.27
2023-02-22T03:16:09.970Z,7.31
2023-02-22T03:17:10.168Z,7.23
2023-02-22T03:18:10.063Z,7.27
2023-02-22T03:19:09.770Z,7.22
2023-02-22T03:20:10.040Z,7.22
2023-02-22T03:21:10.018Z,7.21
2023-02-22T03:22:09.727Z,7.19
2023-02-22T03:23:09.466Z,7.23
2023-02-22T03:24:09.720Z,7.31
2023-02-22T03:25:09.684Z,7.22
2023-02-22T03:26:09.927Z,7.27
2023-02-22T03:27:09.909Z,7.31
2023-02-22T03:28:09.928Z,7.3
2023-02-22T03:29:09.914Z,7.27
2023-02-22T03:30:10.014Z,7.3
2023-02-22T03:31:09.760Z,7.3
2023-02-22T03:32:09.715Z,7.27
2023-02-22T03:49:23.549Z,7.22
2023-02-22T03:50:23.202Z,7.18
2023-02-22T03:51:24.088Z,7.19
2023-02-22T03:52:23.480Z,7.22
2023-02-22T03:53:22.891Z,7.26
2023-02-22T03:54:23.130Z,7.16
2023-02-22T03:55:23.381Z,7.15
2023-02-22T03:56:23.363Z,7.15
2023-02-22T03:57:23.086Z,7.13
2023-02-22T03:58:23.318Z,7.18
2023-02-22T03:59:23.046Z,7.11
2023-02-22T04:00:23.052Z,7.18
2023-02-22T04:01:23.386Z,7.03
2023-02-22T04:02:23.295Z,7.08
2023-02-22T04:03:23.424Z,7.09
2023-02-22T04:04:23.088Z,7.08
2023-02-22T04:05:23.352Z,7.12
2023-02-22T04:06:23.217Z,7.15
2023-02-22T04:07:23.171Z,7.04
2023-02-22T04:08:23.164Z,7.05
2023-02-22T04:09:22.910Z,7.09
2023-02-22T04:10:22.870Z,7.13
2023-02-22T04:11:23.359Z,7.18
2023-02-22T04:12:22.838Z,7.16
2023-02-22T04:13:23.075Z,7.01
2023-02-22T04:14:24.911Z,7.13
2023-02-22T04:15:22.800Z,7.21
2023-02-22T04:16:22.909Z,7.13
2023-02-22T04:17:22.503Z,7.16
2023-02-22T04:18:23.013Z,7.13
2023-02-22T04:19:22.739Z,7.19
2023-02-22T04:20:23.004Z,7.08
2023-02-22T04:21:23.543Z,7.16
2023-02-22T04:22:22.976Z,7.13
2023-02-22T04:23:22.680Z,7.15
2023-02-22T04:24:22.660Z,7.12
2023-02-22T04:25:22.981Z,7.15
2023-02-22T04:26:22.656Z,7.18
2023-02-22T04:27:22.875Z,7.18
2023-02-22T04:28:22.602Z,7.18
2023-02-22T04:29:22.847Z,7.13
2023-02-22T04:30:23.012Z,7.27
2023-02-22T04:31:23.530Z,7.19
2023-02-22T04:32:22.690Z,7.23
2023-02-22T04:33:22.780Z,7.18
2023-02-22T04:34:22.758Z,7.22
2023-02-22T04:35:22.771Z,7.21
2023-02-22T04:36:22.738Z,7.22
2023-02-22T04:37:22.881Z,7.26
2023-02-22T04:38:22.453Z,7.23
2023-02-22T04:39:22.754Z,7.23
2023-02-22T04:40:22.711Z,7.26
2023-02-22T04:41:25.291Z,7.21
2023-02-22T04:42:22.640Z,7.21
2023-02-22T04:43:22.376Z,7.22
2023-02-22T04:44:22.369Z,7.22
2023-02-22T04:45:22.388Z,7.21
2023-02-22T04:46:22.724Z,7.26
2023-02-22T04:47:23.259Z,7.26
2023-02-22T04:48:23.237Z,7.26
2023-02-22T04:49:23.236Z,7.26
2023-02-22T04:50:23.000Z,7.27
2023-02-22T04:51:23.578Z,7.22
2023-02-22T04:52:23.152Z,7.27
2023-02-22T04:53:23.309Z,7.31
2023-02-22T04:54:22.983Z,7.36
2023-02-22T04:55:22.721Z,7.29
2023-02-22T04:56:23.185Z,7.36
2023-02-22T04:57:22.922Z,7.37
2023-02-22T04:58:23.140Z,7.3
2023-02-22T04:59:23.134Z,7.33
2023-02-22T05:00:22.863Z,7.39
2023-02-22T05:01:23.536Z,7.31
2023-02-22T05:02:23.176Z,7.36
2023-02-22T05:03:23.094Z,7.4
2023-02-22T05:04:23.228Z,7.39
2023-02-22T05:05:23.050Z,7.31
2023-02-22T05:06:22.777Z,7.34
2023-02-22T05:07:22.538Z,7.36
2023-02-22T05:08:22.998Z,7.31
2023-02-22T05:09:23.059Z,7.4
2023-02-22T05:10:22.453Z,7.37
2023-02-22T05:11:23.187Z,7.33
2023-02-22T05:12:22.979Z,7.37
2023-02-22T05:13:22.682Z,7.37
2023-02-22T05:14:22.947Z,7.31
2023-02-22T05:15:22.935Z,7.33
2023-02-22T05:16:22.858Z,7.41
2023-02-22T05:17:22.362Z,7.31
2023-02-22T05:18:22.602Z,7.36
2023-02-22T05:19:22.338Z,7.37
2023-02-22T05:20:24.389Z,7.39
2023-02-22T05:21:22.987Z,7.4
2023-02-22T05:22:22.548Z,7.4
2023-02-22T05:23:22.525Z,7.41
2023-02-22T05:24:22.517Z,7.47
2023-02-22T05:25:22.928Z,7.45
2023-02-22T05:26:22.527Z,7.45
2023-02-22T05:27:22.474Z,7.41
2023-02-22T05:28:22.453Z,7.41
2023-02-22T05:29:22.212Z,7.41
2023-02-22T05:30:22.303Z,7.47
2023-02-22T05:31:23.492Z,7.39
2023-02-22T05:32:22.543Z,7.39
2023-02-22T05:33:22.383Z,7.4
2023-02-22T05:34:22.384Z,7.39
2023-02-22T05:35:22.610Z,7.36
2023-02-22T05:36:22.350Z,7.48
2023-02-22T05:37:22.600Z,7.41
2023-02-22T05:38:22.334Z,7.44
2023-02-22T05:39:22.675Z,7.41
2023-02-22T05:40:22.281Z,7.45
2023-02-22T05:41:23.024Z,7.41
2023-02-22T05:42:22.251Z,7.4
2023-02-22T05:43:22.236Z,7.41
2023-02-22T05:44:22.224Z,7.45
2023-02-22T05:45:22.465Z,7.45
2023-02-22T05:46:22.284Z,7.51
2023-02-22T05:47:22.433Z,7.52
2023-02-22T05:48:24.928Z,7.44
2023-02-22T05:49:22.148Z,7.48
2023-02-22T05:50:22.408Z,7.4
2023-02-22T05:51:22.311Z,7.41
2023-02-22T05:52:22.117Z,7.41
2023-02-22T05:53:22.104Z,7.45
2023-02-22T05:54:22.357Z,7.39
2023-02-22T05:55:22.320Z,7.49
2023-02-22T05:56:22.305Z,7.45
2023-02-22T05:57:22.361Z,7.4
2023-02-22T05:58:22.019Z,7.4
2023-02-22T05:59:22.261Z,7.47
2023-02-22T06:00:21.754Z,7.49
2023-02-22T06:01:22.802Z,7.45
2023-02-22T06:02:22.052Z,7.44
2023-02-22T06:03:22.201Z,7.41
2023-02-22T06:04:21.936Z,7.45
2023-02-22T06:05:22.308Z,7.47
2023-02-22T06:06:24.603Z,7.44
2023-02-22T06:07:22.139Z,7.45
2023-02-22T06:08:22.140Z,7.45
2023-02-22T06:09:22.109Z,7.49
2023-02-22T06:10:21.598Z,7.48
2023-02-22T06:11:22.748Z,7.41
2023-02-22T06:12:21.814Z,7.48
2023-02-22T06:13:22.131Z,7.44
2023-02-22T06:14:22.043Z,7.45
2023-02-22T06:15:22.039Z,7.47
2023-02-22T06:16:22.303Z,7.48
2023-02-22T06:17:23.835Z,7.52
2023-02-22T06:18:22.425Z,7.48
2023-02-22T06:19:22.653Z,7.4
2023-02-22T06:20:22.682Z,7.41
2023-02-22T06:21:22.985Z,7.45
2023-02-22T06:22:22.623Z,7.4
2023-02-22T06:23:22.624Z,7.37
2023-02-22T06:24:22.577Z,7.39
2023-02-22T06:25:22.575Z,7.27
2023-02-22T06:26:22.560Z,7.23
2023-02-22T06:27:22.542Z,7.22
2023-02-22T06:28:22.275Z,7.19
2023-02-22T06:29:22.592Z,7.12
2023-02-22T06:30:22.623Z,7.05
2023-02-22T06:31:23.337Z,7
2023-02-22T06:32:22.396Z,6.85
2023-02-22T06:33:22.486Z,6.83
2023-02-22T06:34:22.447Z,6.79
2023-02-22T06:35:22.167Z,6.72
2023-02-22T06:36:22.188Z,6.67
2023-02-22T06:37:22.394Z,6.65
2023-02-22T06:38:22.434Z,6.51
2023-02-22T06:39:22.361Z,6.61
2023-02-22T06:40:21.881Z,6.51
2023-02-22T06:41:22.712Z,6.47
2023-02-22T06:42:22.568Z,6.43
2023-02-22T06:43:22.059Z,6.43
2023-02-22T06:44:21.777Z,6.39
2023-02-22T06:45:22.487Z,6.36
2023-02-22T06:46:21.754Z,6.31
2023-02-22T06:47:22.258Z,6.28
2023-02-22T06:48:22.228Z,6.21
2023-02-22T06:49:22.232Z,6.21
2023-02-22T06:50:22.226Z,6.2
2023-02-22T06:51:22.641Z,6.21
2023-02-22T06:52:22.177Z,6.17
2023-02-22T06:53:21.651Z,6.17
2023-02-22T06:54:21.888Z,6.06
2023-02-22T06:55:21.902Z,6.09
2023-02-22T06:56:21.864Z,6.09
2023-02-22T06:57:21.846Z,6.05
2023-02-22T06:58:22.091Z,6.05
2023-02-22T06:59:22.078Z,6
2023-02-22T07:00:22.050Z,6.02
2023-02-22T07:01:23.052Z,6.05
2023-02-22T07:02:22.025Z,5.96
2023-02-22T07:03:21.888Z,6.03
2023-02-22T07:04:21.765Z,5.96
2023-02-22T07:05:22.009Z,6.03
2023-02-22T07:06:21.712Z,6.07
2023-02-22T07:07:21.953Z,6.02
2023-02-22T07:08:21.946Z,6.06
2023-02-22T07:09:21.923Z,6.1
2023-02-22T07:10:21.651Z,6.1
2023-02-22T07:11:22.151Z,6.13
2023-02-22T07:12:21.618Z,6.15
2023-02-22T07:13:21.624Z,6.14
2023-02-22T07:14:21.604Z,6.21
2023-02-22T07:15:21.826Z,6.21
2023-02-22T07:16:21.761Z,6.2
2023-02-22T07:17:21.871Z,6.14
2023-02-22T07:18:21.536Z,6.18
2023-02-22T07:19:21.785Z,6.2
2023-02-22T07:20:21.756Z,6.18
2023-02-22T07:21:21.889Z,6.25
2023-02-22T07:22:21.732Z,6.21
2023-02-22T07:23:21.476Z,6.25
2023-02-22T07:24:21.698Z,6.18
2023-02-22T07:25:21.679Z,6.28
2023-02-22T07:26:21.688Z,6.28
2023-02-22T07:27:21.645Z,6.33
2023-02-22T07:28:21.397Z,6.29
2023-02-22T07:29:21.374Z,6.26
2023-02-22T07:30:21.232Z,6.33
2023-02-22T07:31:21.984Z,6.36
2023-02-22T07:32:21.933Z,6.21
2023-02-22T07:33:22.149Z,6.4
2023-02-22T07:34:21.541Z,6.52
2023-02-22T07:35:21.531Z,6.46
2023-02-22T07:36:21.524Z,6.61
2023-02-22T07:37:21.244Z,6.61
2023-02-22T07:38:21.512Z,6.76
2023-02-22T07:39:21.539Z,6.79
2023-02-22T07:40:20.951Z,6.88
2023-02-22T07:41:22.167Z,6.86
2023-02-22T07:42:21.426Z,6.9
2023-02-22T07:43:21.162Z,7
2023-02-22T07:44:21.146Z,7.03
2023-02-22T07:45:21.261Z,7.09
2023-02-22T07:46:21.118Z,7.08
2023-02-22T07:47:21.373Z,7
2023-02-22T07:48:22.230Z,7.09
2023-02-22T07:49:21.396Z,7.01
2023-02-22T07:50:21.308Z,7.13
2023-02-22T07:51:21.554Z,7.19
2023-02-22T07:52:21.276Z,7.15
2023-02-22T07:53:21.028Z,7.3
2023-02-22T07:54:21.006Z,7.27
2023-02-22T07:55:20.995Z,7.36
2023-02-22T07:56:20.979Z,7.4
2023-02-22T07:57:21.198Z,7.44
2023-02-22T07:58:21.205Z,7.45
2023-02-22T07:59:20.657Z,7.54
2023-02-22T08:00:20.903Z,7.58
2023-02-22T08:01:22.071Z,7.73
2023-02-22T08:02:21.250Z,7.78
2023-02-22T08:03:20.969Z,7.88
2023-02-22T08:04:20.862Z,8.03
2023-02-22T08:05:21.156Z,8.04
2023-02-22T08:06:21.108Z,8.1
2023-02-22T08:07:20.814Z,8.16
2023-02-22T08:08:23.619Z,8.22
2023-02-22T08:09:20.777Z,8.21
2023-02-22T08:10:20.774Z,8.17
2023-02-22T08:11:21.857Z,8.22
2023-02-22T08:12:20.727Z,8.22
2023-02-22T08:13:21.016Z,8.24
2023-02-22T08:14:20.956Z,8.19
2023-02-22T08:15:20.450Z,8.31
2023-02-22T08:16:20.948Z,8.22
2023-02-22T08:17:21.184Z,8.24
2023-02-22T08:18:20.911Z,8.28
2023-02-22T08:19:20.902Z,8.32
2023-02-22T08:20:20.878Z,8.24
2023-02-22T08:21:21.713Z,8.29
2023-02-22T08:22:23.058Z,8.32
2023-02-22T08:23:20.852Z,8.25
2023-02-22T08:24:20.828Z,8.35
2023-02-22T08:25:20.564Z,8.28
2023-02-22T08:26:20.550Z,8.31
2023-02-22T08:27:20.560Z,8.35
2023-02-22T08:28:20.508Z,8.35
2023-02-22T08:29:20.570Z,8.43
2023-02-22T08:30:20.866Z,8.42
2023-02-22T08:31:21.907Z,8.52
2023-02-22T08:32:21.271Z,8.5
2023-02-22T08:33:20.946Z,8.5
2023-02-22T08:34:20.725Z,8.52
2023-02-22T08:35:20.418Z,8.53
2023-02-22T08:36:20.652Z,8.65
2023-02-22T08:37:20.708Z,8.61
2023-02-22T08:38:20.631Z,8.61
2023-02-22T08:39:20.354Z,8.72
2023-02-22T08:40:20.594Z,8.79
2023-02-22T08:41:21.538Z,8.95
2023-02-22T08:42:20.578Z,8.92
2023-02-22T08:43:20.625Z,9.01
2023-02-22T08:44:20.563Z,9.11
2023-02-22T08:45:20.567Z,9.29
2023-02-22T08:46:20.446Z,9.35
2023-02-22T08:47:20.550Z,9.44
2023-02-22T08:48:20.525Z,9.5
2023-02-22T08:49:20.486Z,9.55
2023-02-22T08:50:20.216Z,9.56
2023-02-22T08:51:21.055Z,9.71
2023-02-22T08:52:20.237Z,9.72
2023-02-22T08:53:20.504Z,9.84
2023-02-22T08:54:20.168Z,9.93
2023-02-22T08:55:19.881Z,10
2023-02-22T08:56:20.116Z,10.18
2023-02-22T08:57:22.559Z,10.28
2023-02-22T08:58:20.107Z,10.32
2023-02-22T08:59:19.826Z,10.41
2023-02-22T09:00:20.359Z,10.44
2023-02-22T09:01:35.671Z,10.55
2023-02-22T09:02:19.965Z,10.49
2023-02-22T09:03:20.668Z,10.55
2023-02-22T09:04:20.300Z,10.46
2023-02-22T09:05:20.303Z,10.52
2023-02-22T09:06:20.396Z,10.54
2023-02-22T09:07:19.740Z,10.57
2023-02-22T09:08:20.237Z,10.57
2023-02-22T09:09:20.309Z,10.57
2023-02-22T09:10:19.997Z,10.55
2023-02-22T09:11:20.583Z,10.63
2023-02-22T09:12:19.928Z,10.52
2023-02-22T09:13:20.164Z,10.46
2023-02-22T09:14:20.149Z,10.52
2023-02-22T09:15:20.197Z,10.57
2023-02-22T09:16:20.314Z,10.57
2023-02-22T09:17:20.126Z,10.54
2023-02-22T09:18:20.137Z,10.57
2023-02-22T09:19:19.830Z,10.54
2023-02-22T09:20:20.133Z,10.55
2023-02-22T09:21:21.215Z,10.55
2023-02-22T09:22:19.555Z,10.54
2023-02-22T09:23:21.552Z,10.54
2023-02-22T09:24:19.799Z,10.59
2023-02-22T09:25:22.282Z,10.66
2023-02-22T09:26:19.794Z,10.69
2023-02-22T09:27:19.735Z,10.88
2023-02-22T09:28:19.985Z,10.94
2023-02-22T09:29:19.704Z,11.03
2023-02-22T09:30:20.140Z,11.09
2023-02-22T09:31:21.332Z,11.15
2023-02-22T09:32:20.221Z,11.31
2023-02-22T09:33:20.046Z,11.35
2023-02-22T09:34:19.650Z,11.46
2023-02-22T09:35:19.645Z,11.53
2023-02-22T09:36:20.208Z,11.6
2023-02-22T09:37:19.879Z,11.6
2023-02-22T09:38:19.930Z,11.66
2023-02-22T09:39:19.971Z,11.63
2023-02-22T09:40:19.833Z,11.64
2023-02-22T09:41:20.752Z,11.67
2023-02-22T09:42:19.810Z,11.73
2023-02-22T09:43:19.542Z,11.73
2023-02-22T09:44:19.787Z,11.68
2023-02-22T09:45:19.781Z,11.66
2023-02-22T09:46:20.809Z,11.66
2023-02-22T09:47:19.887Z,11.67
2023-02-22T09:48:26.609Z,11.81
2023-02-22T09:49:19.479Z,11.81
2023-02-22T09:50:19.731Z,11.81
2023-02-22T09:51:19.572Z,11.88
2023-02-22T09:52:19.434Z,11.89
2023-02-22T09:53:19.440Z,12.01
2023-02-22T09:54:19.440Z,12
2023-02-22T09:55:19.678Z,11.98
2023-02-22T09:56:20.902Z,12.03
2023-02-22T09:57:19.857Z,12.07
2023-02-22T09:58:19.386Z,12.03
2023-02-22T09:59:19.110Z,11.91
2023-02-22T10:00:19.612Z,11.76
2023-02-22T10:01:19.605Z,11.81
2023-02-22T10:02:19.587Z,11.68
2023-02-22T10:03:21.343Z,11.61
2023-02-22T10:04:19.308Z,11.67
2023-02-22T10:05:19.678Z,11.6
2023-02-22T10:06:19.907Z,11.71
2023-02-22T10:07:19.387Z,11.78
2023-02-22T10:08:19.301Z,11.73
2023-02-22T10:09:19.522Z,11.84
2023-02-22T10:10:19.241Z,11.78
2023-02-22T10:11:19.254Z,11.88
2023-02-22T10:12:19.483Z,11.91
2023-02-22T10:13:19.547Z,12.05
2023-02-22T10:14:19.207Z,12.18
2023-02-22T10:15:19.457Z,12.22
2023-02-22T10:16:20.367Z,12.33
2023-02-22T10:17:19.426Z,12.43
2023-02-22T10:18:20.428Z,12.4
2023-02-22T10:19:19.400Z,12.63
2023-02-22T10:20:19.403Z,12.59
2023-02-22T10:21:18.870Z,12.78
2023-02-22T10:22:19.402Z,12.86
2023-02-22T10:23:19.371Z,12.99
2023-02-22T10:24:19.107Z,12.95
2023-02-22T10:25:19.382Z,13.09
2023-02-22T10:26:20.463Z,13.13
2023-02-22T10:27:19.064Z,13.1
2023-02-22T10:28:19.245Z,13.11
2023-02-22T10:29:19.386Z,13.13
2023-02-22T10:30:29.059Z,13.14
2023-02-22T10:31:19.765Z,13.24
2023-02-22T10:32:19.620Z,13.2
2023-02-22T10:33:18.758Z,13.25
2023-02-22T10:34:19.248Z,13.25
2023-02-22T10:35:19.245Z,13.28
2023-02-22T10:36:19.617Z,13.28
2023-02-22T10:37:19.355Z,13.32
2023-02-22T10:38:18.734Z,13.39
2023-02-22T10:39:19.076Z,13.37
2023-02-22T10:40:18.948Z,13.39
2023-02-22T10:41:21.035Z,13.51
2023-02-22T10:42:19.175Z,13.47
2023-02-22T10:43:18.895Z,13.45
2023-02-22T10:44:19.156Z,13.54
2023-02-22T10:45:19.373Z,13.42
2023-02-22T10:46:19.945Z,13.58
2023-02-22T10:47:24.252Z,13.48
2023-02-22T10:48:19.114Z,13.42
2023-02-22T10:49:19.099Z,13.53
2023-02-22T10:50:19.090Z,13.37
2023-02-22T10:51:18.829Z,13.32
2023-02-22T10:52:18.568Z,13.19
2023-02-22T10:53:19.087Z,13.02
2023-02-22T10:54:19.058Z,12.88
2023-02-22T10:55:20.743Z,12.77
2023-02-22T10:56:19.914Z,12.76
2023-02-22T10:57:18.770Z,12.94
2023-02-22T10:58:19.013Z,12.96
2023-02-22T10:59:18.747Z,13.01
2023-02-22T11:00:18.756Z,13.02
2023-02-22T11:01:20.027Z,13.07
2023-02-22T11:02:18.715Z,12.94
2023-02-22T11:03:18.751Z,12.92
2023-02-22T11:04:18.732Z,12.98
2023-02-22T11:05:19.165Z,12.98
2023-02-22T11:06:19.429Z,12.96
2023-02-22T11:07:18.925Z,12.96
2023-02-22T11:08:18.911Z,12.96
2023-02-22T11:09:18.946Z,13.13
2023-02-22T11:10:18.632Z,13.01
2023-02-22T11:11:19.180Z,12.96
2023-02-22T11:12:18.640Z,13.09
2023-02-22T11:13:18.639Z,13.13
2023-02-22T11:14:18.600Z,13.21
2023-02-22T11:15:18.865Z,13.25
2023-02-22T11:16:18.876Z,13.29
2023-02-22T11:17:18.914Z,13.32
2023-02-22T11:18:18.552Z,13.35
2023-02-22T11:19:18.560Z,13.36
2023-02-22T11:20:18.869Z,13.44
2023-02-22T11:21:19.462Z,13.54
2023-02-22T11:22:18.873Z,13.54
2023-02-22T11:23:18.291Z,13.51
2023-02-22T11:24:18.450Z,13.54
2023-02-22T11:25:18.483Z,13.66
2023-02-22T11:26:18.726Z,13.66
2023-02-22T11:27:18.462Z,13.72
2023-02-22T11:28:18.719Z,13.72
2023-02-22T11:29:18.708Z,13.69
2023-02-22T11:30:18.927Z,13.72
2023-02-22T11:31:19.484Z,13.83
2023-02-22T11:32:18.694Z,13.87
2023-02-22T11:33:18.829Z,13.87
2023-02-22T11:34:18.658Z,13.86
2023-02-22T11:35:19.836Z,13.91
2023-02-22T11:36:18.634Z,13.95
2023-02-22T11:37:18.631Z,13.91
2023-02-22T11:38:18.635Z,13.9
2023-02-22T11:39:18.453Z,13.76
2023-02-22T11:40:18.626Z,13.69
2023-02-22T11:41:19.596Z,13.51
2023-02-22T11:42:18.668Z,13.45
2023-02-22T11:43:18.373Z,13.37
2023-02-22T11:44:18.547Z,13.14
2023-02-22T11:45:18.287Z,13.19
2023-02-22T11:46:18.435Z,13.19
2023-02-22T11:47:18.516Z,13.25
2023-02-22T11:48:18.257Z,13.28
2023-02-22T11:49:18.855Z,13.31
2023-02-22T11:50:18.483Z,13.27
2023-02-22T11:51:20.313Z,13.27
2023-02-22T11:52:18.487Z,13.28
2023-02-22T11:53:18.460Z,13.13
2023-02-22T11:54:18.201Z,13.02
2023-02-22T11:55:18.181Z,13.02
2023-02-22T11:56:25.508Z,13.11
2023-02-22T11:57:18.447Z,13.1
2023-02-22T11:58:18.745Z,13.07
2023-02-22T11:59:18.410Z,13.19
2023-02-22T12:00:18.621Z,13.2
2023-02-22T12:01:18.137Z,13.31
2023-02-22T12:02:18.114Z,13.21
2023-02-22T12:03:18.249Z,13.21
2023-02-22T12:04:18.847Z,13.29
2023-02-22T12:05:18.668Z,13.31
2023-02-22T12:06:19.039Z,13.4
2023-02-22T12:07:18.091Z,13.47
2023-02-22T12:08:24.626Z,13.48
2023-02-22T12:09:18.320Z,13.6
2023-02-22T12:10:18.049Z,13.48
2023-02-22T12:11:18.026Z,13.58
2023-02-22T12:12:18.278Z,13.58
2023-02-22T12:13:18.012Z,13.6
2023-02-22T12:14:18.012Z,13.62
2023-02-22T12:15:18.020Z,13.73
2023-02-22T12:16:19.208Z,13.72
2023-02-22T12:17:18.234Z,13.72
2023-02-22T12:18:18.224Z,13.83
2023-02-22T12:19:17.978Z,13.99
2023-02-22T12:20:18.262Z,13.97
2023-02-22T12:21:18.276Z,14.01
2023-02-22T12:22:18.244Z,14.11
2023-02-22T12:23:18.189Z,14.06
2023-02-22T12:24:18.198Z,14.05
2023-02-22T12:25:18.148Z,14.09
2023-02-22T12:26:18.792Z,14.09
2023-02-22T12:27:18.264Z,14.16
2023-02-22T12:28:29.525Z,14.19
2023-02-22T12:29:17.932Z,14.28
2023-02-22T12:30:18.499Z,14.26
2023-02-22T12:31:19.090Z,14.36
2023-02-22T12:32:18.453Z,14.52
2023-02-22T12:33:18.084Z,14.48
2023-02-22T12:34:18.446Z,14.48
2023-02-22T12:35:17.833Z,14.49
2023-02-22T12:36:18.064Z,14.56
2023-02-22T12:37:18.139Z,14.48
2023-02-22T12:38:18.037Z,14.45
2023-02-22T12:39:18.031Z,14.51
2023-02-22T12:40:18.028Z,14.48
2023-02-22T12:41:18.699Z,14.51
2023-02-22T12:42:18.019Z,14.48
2023-02-22T12:43:17.737Z,14.44
2023-02-22T12:44:18.019Z,14.39
2023-02-22T12:45:17.742Z,14.38
2023-02-22T12:46:18.296Z,14.3
2023-02-22T12:47:18.223Z,14.3
2023-02-22T12:48:17.964Z,14.23
2023-02-22T12:49:18.209Z,14.2
2023-02-22T12:50:20.744Z,14.11
2023-02-22T12:51:18.347Z,14.19
2023-02-22T12:52:26.526Z,14.09
2023-02-22T12:53:18.194Z,14.11
2023-02-22T12:54:17.926Z,14.16
2023-02-22T12:55:18.149Z,14.03
2023-02-22T12:56:18.149Z,13.97
2023-02-22T12:57:18.150Z,14.08
2023-02-22T12:58:17.901Z,14.09
2023-02-22T12:59:18.129Z,14.01
2023-02-22T13:00:17.607Z,13.93
2023-02-22T13:01:19.096Z,13.95
2023-02-22T13:02:18.110Z,14.02
2023-02-22T13:03:17.583Z,13.95
2023-02-22T13:04:25.795Z,13.91
2023-02-22T13:05:18.337Z,13.93
2023-02-22T13:06:17.812Z,13.88
2023-02-22T13:07:18.062Z,13.86
2023-02-22T13:08:17.836Z,13.84
2023-02-22T13:09:17.801Z,13.84
2023-02-22T13:10:17.765Z,13.84
2023-02-22T13:11:18.706Z,13.87
2023-02-22T13:12:17.746Z,13.84
2023-02-22T13:13:17.852Z,13.84
2023-02-22T13:14:18.024Z,13.86
2023-02-22T13:15:18.001Z,13.86
2023-02-22T13:16:17.867Z,13.88
2023-02-22T13:17:17.705Z,13.95
2023-02-22T13:18:18.054Z,13.97
2023-02-22T13:19:17.942Z,14.08
2023-02-22T13:20:17.680Z,14.2
2023-02-22T13:21:18.595Z,14.2
2023-02-22T13:22:17.918Z,14.28
2023-02-22T13:23:17.907Z,14.31
2023-02-22T13:24:17.731Z,14.27
2023-02-22T13:25:17.927Z,14.42
2023-02-22T13:26:17.917Z,14.39
2023-02-22T13:27:17.628Z,14.41
2023-02-22T13:28:18.038Z,14.49